sensor_id;sensor_type;location;lat;lon;timestamp;temperature;humidity
76293;DHT22;67256;51.154;4.164;2023-09-12T00:01:04;22.50;83.80
76293;DHT22;67256;51.154;4.164;2023-09-12T00:03:33;22.50;83.10
76293;DHT22;67256;51.154;4.164;2023-09-12T00:06:00;22.50;83.30
76293;DHT22;67256;51.154;4.164;2023-09-12T00:08:25;22.50;83.10
76293;DHT22;67256;51.154;4.164;2023-09-12T00:11:00;22.60;83.50
76293;DHT22;67256;51.154;4.164;2023-09-12T00:13:26;22.60;83.40
76293;DHT22;67256;51.154;4.164;2023-09-12T00:15:52;22.60;83.60
76293;DHT22;67256;51.154;4.164;2023-09-12T00:18:17;22.60;83.70
76293;DHT22;67256;51.154;4.164;2023-09-12T00:20:43;22.60;83.40
76293;DHT22;67256;51.154;4.164;2023-09-12T00:23:08;22.70;83.50
76293;DHT22;67256;51.154;4.164;2023-09-12T00:25:34;22.70;83.60
76293;DHT22;67256;51.154;4.164;2023-09-12T00:27:59;22.80;83.70
76293;DHT22;67256;51.154;4.164;2023-09-12T00:30:25;22.80;83.80
76293;DHT22;67256;51.154;4.164;2023-09-12T00:32:51;22.80;83.90
76293;DHT22;67256;51.154;4.164;2023-09-12T00:35:16;22.90;83.90
76293;DHT22;67256;51.154;4.164;2023-09-12T00:37:42;22.90;84.00
76293;DHT22;67256;51.154;4.164;2023-09-12T00:40:07;22.90;84.00
76293;DHT22;67256;51.154;4.164;2023-09-12T00:42:34;22.90;84.40
76293;DHT22;67256;51.154;4.164;2023-09-12T00:44:59;22.90;83.60
76293;DHT22;67256;51.154;4.164;2023-09-12T00:47:25;22.90;83.80
76293;DHT22;67256;51.154;4.164;2023-09-12T00:49:51;22.90;83.90
76293;DHT22;67256;51.154;4.164;2023-09-12T00:52:17;23.00;83.70
76293;DHT22;67256;51.154;4.164;2023-09-12T00:54:43;23.00;83.50
76293;DHT22;67256;51.154;4.164;2023-09-12T00:57:08;22.90;83.40
76293;DHT22;67256;51.154;4.164;2023-09-12T00:59:34;22.90;83.30
76293;DHT22;67256;51.154;4.164;2023-09-12T01:02:00;22.90;83.40
76293;DHT22;67256;51.154;4.164;2023-09-12T01:04:26;22.90;83.50
76293;DHT22;67256;51.154;4.164;2023-09-12T01:06:52;23.00;83.40
76293;DHT22;67256;51.154;4.164;2023-09-12T01:09:18;23.00;83.40
76293;DHT22;67256;51.154;4.164;2023-09-12T01:11:44;22.90;83.30
76293;DHT22;67256;51.154;4.164;2023-09-12T01:14:09;22.90;83.30
76293;DHT22;67256;51.154;4.164;2023-09-12T01:16:35;22.90;83.30
76293;DHT22;67256;51.154;4.164;2023-09-12T01:19:01;22.90;83.30
76293;DHT22;67256;51.154;4.164;2023-09-12T01:26:52;22.80;83.40
76293;DHT22;67256;51.154;4.164;2023-09-12T01:29:21;22.80;83.30
76293;DHT22;67256;51.154;4.164;2023-09-12T01:31:47;22.70;83.20
76293;DHT22;67256;51.154;4.164;2023-09-12T01:34:14;22.80;83.00
76293;DHT22;67256;51.154;4.164;2023-09-12T01:36:40;22.80;82.50
76293;DHT22;67256;51.154;4.164;2023-09-12T01:39:05;22.80;82.90
76293;DHT22;67256;51.154;4.164;2023-09-12T01:41:32;22.80;83.00
76293;DHT22;67256;51.154;4.164;2023-09-12T01:43:59;22.70;83.10
76293;DHT22;67256;51.154;4.164;2023-09-12T01:46:27;22.70;83.30
76293;DHT22;67256;51.154;4.164;2023-09-12T01:48:52;22.70;83.40
76293;DHT22;67256;51.154;4.164;2023-09-12T01:51:19;22.60;83.50
76293;DHT22;67256;51.154;4.164;2023-09-12T01:53:45;22.60;83.20
76293;DHT22;67256;51.154;4.164;2023-09-12T01:56:12;22.60;83.30
76293;DHT22;67256;51.154;4.164;2023-09-12T01:58:38;22.60;83.00
76293;DHT22;67256;51.154;4.164;2023-09-12T02:01:04;22.60;82.50
76293;DHT22;67256;51.154;4.164;2023-09-12T02:03:30;22.60;82.50
76293;DHT22;67256;51.154;4.164;2023-09-12T02:05:55;22.60;82.80
76293;DHT22;67256;51.154;4.164;2023-09-12T02:08:22;22.60;82.70
76293;DHT22;67256;51.154;4.164;2023-09-12T02:10:47;22.60;82.80
76293;DHT22;67256;51.154;4.164;2023-09-12T02:13:13;22.60;82.80
76293;DHT22;67256;51.154;4.164;2023-09-12T02:15:38;22.60;82.80
76293;DHT22;67256;51.154;4.164;2023-09-12T02:18:04;22.60;83.00
76293;DHT22;67256;51.154;4.164;2023-09-12T02:20:30;22.60;83.00
76293;DHT22;67256;51.154;4.164;2023-09-12T02:22:56;22.50;83.20
76293;DHT22;67256;51.154;4.164;2023-09-12T02:25:21;22.40;83.70
76293;DHT22;67256;51.154;4.164;2023-09-12T02:27:47;22.40;83.80
76293;DHT22;67256;51.154;4.164;2023-09-12T02:30:13;22.40;83.60
76293;DHT22;67256;51.154;4.164;2023-09-12T02:32:41;22.40;83.60
76293;DHT22;67256;51.154;4.164;2023-09-12T02:35:07;22.50;83.50
76293;DHT22;67256;51.154;4.164;2023-09-12T02:37:32;22.50;83.20
76293;DHT22;67256;51.154;4.164;2023-09-12T02:40:00;22.50;83.20
76293;DHT22;67256;51.154;4.164;2023-09-12T02:42:27;22.50;83.20
76293;DHT22;67256;51.154;4.164;2023-09-12T02:44:52;22.50;83.40
76293;DHT22;67256;51.154;4.164;2023-09-12T02:47:18;22.50;83.90
76293;DHT22;67256;51.154;4.164;2023-09-12T02:49:43;22.50;83.40
76293;DHT22;67256;51.154;4.164;2023-09-12T02:52:09;22.40;83.30
76293;DHT22;67256;51.154;4.164;2023-09-12T02:54:34;22.40;83.50
76293;DHT22;67256;51.154;4.164;2023-09-12T02:57:00;22.30;83.30
76293;DHT22;67256;51.154;4.164;2023-09-12T02:59:25;22.30;83.70
76293;DHT22;67256;51.154;4.164;2023-09-12T03:01:51;22.20;84.10
76293;DHT22;67256;51.154;4.164;2023-09-12T03:04:16;22.10;84.00
76293;DHT22;67256;51.154;4.164;2023-09-12T03:06:42;22.10;84.50
76293;DHT22;67256;51.154;4.164;2023-09-12T03:09:09;22.10;84.70
76293;DHT22;67256;51.154;4.164;2023-09-12T03:11:36;22.10;84.60
76293;DHT22;67256;51.154;4.164;2023-09-12T03:14:02;22.20;84.60
76293;DHT22;67256;51.154;4.164;2023-09-12T03:16:27;22.10;84.40
76293;DHT22;67256;51.154;4.164;2023-09-12T03:18:53;22.00;85.10
76293;DHT22;67256;51.154;4.164;2023-09-12T03:21:18;22.00;84.80
76293;DHT22;67256;51.154;4.164;2023-09-12T03:23:44;22.00;84.80
76293;DHT22;67256;51.154;4.164;2023-09-12T03:26:10;22.10;84.80
76293;DHT22;67256;51.154;4.164;2023-09-12T03:28:36;22.20;84.30
76293;DHT22;67256;51.154;4.164;2023-09-12T03:31:06;22.20;84.10
76293;DHT22;67256;51.154;4.164;2023-09-12T03:33:32;22.20;83.90
76293;DHT22;67256;51.154;4.164;2023-09-12T03:35:58;22.20;84.10
76293;DHT22;67256;51.154;4.164;2023-09-12T03:38:23;22.10;84.30
76293;DHT22;67256;51.154;4.164;2023-09-12T03:40:49;22.10;84.50
76293;DHT22;67256;51.154;4.164;2023-09-12T03:43:14;22.10;84.30
76293;DHT22;67256;51.154;4.164;2023-09-12T03:45:40;22.00;84.50
76293;DHT22;67256;51.154;4.164;2023-09-12T03:48:06;22.00;84.60
76293;DHT22;67256;51.154;4.164;2023-09-12T03:50:32;22.00;84.50
76293;DHT22;67256;51.154;4.164;2023-09-12T03:52:57;22.00;84.70
76293;DHT22;67256;51.154;4.164;2023-09-12T03:55:23;21.90;85.00
76293;DHT22;67256;51.154;4.164;2023-09-12T03:57:48;21.90;85.10
76293;DHT22;67256;51.154;4.164;2023-09-12T04:00:14;22.00;84.60
76293;DHT22;67256;51.154;4.164;2023-09-12T04:02:41;21.90;84.60
76293;DHT22;67256;51.154;4.164;2023-09-12T04:05:06;21.90;84.80
76293;DHT22;67256;51.154;4.164;2023-09-12T04:07:32;22.00;84.70
76293;DHT22;67256;51.154;4.164;2023-09-12T04:09:57;22.00;84.70
76293;DHT22;67256;51.154;4.164;2023-09-12T04:12:23;21.90;84.70
76293;DHT22;67256;51.154;4.164;2023-09-12T04:14:49;21.90;84.60
76293;DHT22;67256;51.154;4.164;2023-09-12T04:17:15;21.90;84.50
76293;DHT22;67256;51.154;4.164;2023-09-12T04:19:41;21.90;85.00
76293;DHT22;67256;51.154;4.164;2023-09-12T04:22:06;21.80;85.10
76293;DHT22;67256;51.154;4.164;2023-09-12T04:24:32;21.80;85.30
76293;DHT22;67256;51.154;4.164;2023-09-12T04:26:57;21.80;84.90
76293;DHT22;67256;51.154;4.164;2023-09-12T04:29:24;21.80;85.10
76293;DHT22;67256;51.154;4.164;2023-09-12T04:31:49;21.80;85.00
76293;DHT22;67256;51.154;4.164;2023-09-12T04:34:15;21.80;84.80
76293;DHT22;67256;51.154;4.164;2023-09-12T04:36:42;21.80;84.90
76293;DHT22;67256;51.154;4.164;2023-09-12T04:39:07;21.70;85.10
76293;DHT22;67256;51.154;4.164;2023-09-12T04:41:34;21.70;84.90
76293;DHT22;67256;51.154;4.164;2023-09-12T04:43:59;21.80;85.00
76293;DHT22;67256;51.154;4.164;2023-09-12T04:46:27;21.70;85.10
76293;DHT22;67256;51.154;4.164;2023-09-12T04:48:53;21.70;85.30
76293;DHT22;67256;51.154;4.164;2023-09-12T04:51:18;21.70;85.10
76293;DHT22;67256;51.154;4.164;2023-09-12T04:53:44;21.70;85.30
76293;DHT22;67256;51.154;4.164;2023-09-12T04:56:09;21.70;85.50
76293;DHT22;67256;51.154;4.164;2023-09-12T04:58:35;21.70;85.20
76293;DHT22;67256;51.154;4.164;2023-09-12T05:01:01;21.80;85.10
76293;DHT22;67256;51.154;4.164;2023-09-12T05:03:27;21.80;84.70
76293;DHT22;67256;51.154;4.164;2023-09-12T05:05:53;21.80;84.70
76293;DHT22;67256;51.154;4.164;2023-09-12T05:08:18;21.70;84.90
76293;DHT22;67256;51.154;4.164;2023-09-12T05:10:45;21.60;85.00
76293;DHT22;67256;51.154;4.164;2023-09-12T05:13:11;21.60;85.50
76293;DHT22;67256;51.154;4.164;2023-09-12T05:15:37;21.60;85.40
76293;DHT22;67256;51.154;4.164;2023-09-12T05:18:07;21.60;85.60
76293;DHT22;67256;51.154;4.164;2023-09-12T05:20:33;21.60;85.10
76293;DHT22;67256;51.154;4.164;2023-09-12T05:22:59;21.60;85.10
76293;DHT22;67256;51.154;4.164;2023-09-12T05:25:25;21.60;84.90
76293;DHT22;67256;51.154;4.164;2023-09-12T05:27:52;21.50;85.30
76293;DHT22;67256;51.154;4.164;2023-09-12T05:30:17;21.50;85.60
76293;DHT22;67256;51.154;4.164;2023-09-12T05:32:43;21.60;85.50
76293;DHT22;67256;51.154;4.164;2023-09-12T05:35:09;21.60;85.30
76293;DHT22;67256;51.154;4.164;2023-09-12T05:37:34;21.60;85.60
76293;DHT22;67256;51.154;4.164;2023-09-12T05:40:00;21.60;85.40
76293;DHT22;67256;51.154;4.164;2023-09-12T05:42:25;21.60;85.30
76293;DHT22;67256;51.154;4.164;2023-09-12T05:44:51;21.60;85.20
76293;DHT22;67256;51.154;4.164;2023-09-12T05:47:20;21.60;85.00
76293;DHT22;67256;51.154;4.164;2023-09-12T05:49:46;21.60;85.10
76293;DHT22;67256;51.154;4.164;2023-09-12T05:52:11;21.50;85.10
76293;DHT22;67256;51.154;4.164;2023-09-12T05:54:37;21.60;85.10
76293;DHT22;67256;51.154;4.164;2023-09-12T05:57:03;21.60;84.90
76293;DHT22;67256;51.154;4.164;2023-09-12T05:59:29;21.60;84.90
76293;DHT22;67256;51.154;4.164;2023-09-12T06:01:55;21.60;84.90
76293;DHT22;67256;51.154;4.164;2023-09-12T06:04:21;21.60;84.60
76293;DHT22;67256;51.154;4.164;2023-09-12T06:06:46;21.60;84.80
76293;DHT22;67256;51.154;4.164;2023-09-12T06:09:12;21.60;84.80
76293;DHT22;67256;51.154;4.164;2023-09-12T06:11:37;21.60;84.80
76293;DHT22;67256;51.154;4.164;2023-09-12T06:14:03;21.60;85.00
76293;DHT22;67256;51.154;4.164;2023-09-12T06:16:29;21.60;84.70
76293;DHT22;67256;51.154;4.164;2023-09-12T06:18:55;21.70;84.50
76293;DHT22;67256;51.154;4.164;2023-09-12T06:21:20;21.70;84.50
76293;DHT22;67256;51.154;4.164;2023-09-12T06:24:08;21.70;84.20
76293;DHT22;67256;51.154;4.164;2023-09-12T06:26:32;21.70;84.30
76293;DHT22;67256;51.154;4.164;2023-09-12T06:28:58;21.80;84.20
76293;DHT22;67256;51.154;4.164;2023-09-12T06:31:24;21.90;83.90
76293;DHT22;67256;51.154;4.164;2023-09-12T06:33:49;21.90;83.90
76293;DHT22;67256;51.154;4.164;2023-09-12T06:36:15;21.90;83.90
76293;DHT22;67256;51.154;4.164;2023-09-12T06:38:40;21.90;83.90
76293;DHT22;67256;51.154;4.164;2023-09-12T06:41:06;21.90;83.80
76293;DHT22;67256;51.154;4.164;2023-09-12T06:43:32;22.00;83.90
76293;DHT22;67256;51.154;4.164;2023-09-12T06:45:58;22.00;83.90
76293;DHT22;67256;51.154;4.164;2023-09-12T06:48:23;22.00;83.80
76293;DHT22;67256;51.154;4.164;2023-09-12T06:50:49;21.90;84.10
76293;DHT22;67256;51.154;4.164;2023-09-12T06:53:15;21.80;84.00
76293;DHT22;67256;51.154;4.164;2023-09-12T06:55:41;21.90;84.30
76293;DHT22;67256;51.154;4.164;2023-09-12T06:58:06;21.90;84.10
76293;DHT22;67256;51.154;4.164;2023-09-12T07:00:33;22.00;83.70
76293;DHT22;67256;51.154;4.164;2023-09-12T07:02:58;22.00;83.80
76293;DHT22;67256;51.154;4.164;2023-09-12T07:05:24;22.00;83.30
76293;DHT22;67256;51.154;4.164;2023-09-12T07:07:50;21.90;83.70
76293;DHT22;67256;51.154;4.164;2023-09-12T07:10:16;22.00;83.60
76293;DHT22;67256;51.154;4.164;2023-09-12T07:12:42;22.10;83.30
76293;DHT22;67256;51.154;4.164;2023-09-12T07:15:07;22.20;83.00
76293;DHT22;67256;51.154;4.164;2023-09-12T07:17:34;22.20;82.70
76293;DHT22;67256;51.154;4.164;2023-09-12T07:20:00;22.20;83.00
76293;DHT22;67256;51.154;4.164;2023-09-12T07:22:26;22.20;82.80
76293;DHT22;67256;51.154;4.164;2023-09-12T07:24:52;22.20;82.70
76293;DHT22;67256;51.154;4.164;2023-09-12T07:27:17;22.30;82.70
76293;DHT22;67256;51.154;4.164;2023-09-12T07:29:43;22.30;82.40
76293;DHT22;67256;51.154;4.164;2023-09-12T07:32:08;22.30;82.30
76293;DHT22;67256;51.154;4.164;2023-09-12T07:34:34;22.30;82.30
76293;DHT22;67256;51.154;4.164;2023-09-12T07:36:59;22.30;82.30
76293;DHT22;67256;51.154;4.164;2023-09-12T07:39:25;22.30;82.30
76293;DHT22;67256;51.154;4.164;2023-09-12T07:41:50;22.40;82.60
76293;DHT22;67256;51.154;4.164;2023-09-12T07:44:16;22.40;82.60
76293;DHT22;67256;51.154;4.164;2023-09-12T07:46:42;22.40;81.70
76293;DHT22;67256;51.154;4.164;2023-09-12T07:49:09;22.30;82.30
76293;DHT22;67256;51.154;4.164;2023-09-12T07:51:35;22.30;82.20
76293;DHT22;67256;51.154;4.164;2023-09-12T07:54:00;22.30;82.30
76293;DHT22;67256;51.154;4.164;2023-09-12T07:56:26;22.20;82.30
76293;DHT22;67256;51.154;4.164;2023-09-12T07:58:52;22.30;82.30
76293;DHT22;67256;51.154;4.164;2023-09-12T08:01:17;22.40;81.80
76293;DHT22;67256;51.154;4.164;2023-09-12T08:03:44;22.50;81.50
76293;DHT22;67256;51.154;4.164;2023-09-12T08:06:09;22.60;81.50
76293;DHT22;67256;51.154;4.164;2023-09-12T08:08:35;22.60;81.50
76293;DHT22;67256;51.154;4.164;2023-09-12T08:11:00;22.60;81.40
76293;DHT22;67256;51.154;4.164;2023-09-12T08:13:27;22.60;81.20
76293;DHT22;67256;51.154;4.164;2023-09-12T08:15:54;22.60;81.00
76293;DHT22;67256;51.154;4.164;2023-09-12T08:18:20;22.50;81.10
76293;DHT22;67256;51.154;4.164;2023-09-12T08:20:45;22.50;81.00
76293;DHT22;67256;51.154;4.164;2023-09-12T08:23:11;22.40;81.20
76293;DHT22;67256;51.154;4.164;2023-09-12T08:25:36;22.50;81.60
76293;DHT22;67256;51.154;4.164;2023-09-12T08:28:02;22.60;81.90
76293;DHT22;67256;51.154;4.164;2023-09-12T08:30:28;22.50;81.70
76293;DHT22;67256;51.154;4.164;2023-09-12T08:32:58;22.70;81.00
76293;DHT22;67256;51.154;4.164;2023-09-12T08:35:24;22.70;81.20
76293;DHT22;67256;51.154;4.164;2023-09-12T08:37:51;22.80;80.10
76293;DHT22;67256;51.154;4.164;2023-09-12T08:40:17;22.80;80.00
76293;DHT22;67256;51.154;4.164;2023-09-12T08:42:44;22.70;80.20
76293;DHT22;67256;51.154;4.164;2023-09-12T08:45:13;22.80;79.90
76293;DHT22;67256;51.154;4.164;2023-09-12T08:47:43;22.90;79.70
76293;DHT22;67256;51.154;4.164;2023-09-12T08:50:10;22.90;78.80
76293;DHT22;67256;51.154;4.164;2023-09-12T08:52:36;22.90;79.70
76293;DHT22;67256;51.154;4.164;2023-09-12T08:55:01;22.90;79.30
76293;DHT22;67256;51.154;4.164;2023-09-12T08:57:28;23.00;78.70
76293;DHT22;67256;51.154;4.164;2023-09-12T08:59:54;22.90;79.20
76293;DHT22;67256;51.154;4.164;2023-09-12T09:02:20;22.90;78.70
76293;DHT22;67256;51.154;4.164;2023-09-12T09:04:46;22.80;78.90
76293;DHT22;67256;51.154;4.164;2023-09-12T09:07:11;22.80;79.00
76293;DHT22;67256;51.154;4.164;2023-09-12T09:09:39;22.80;79.00
76293;DHT22;67256;51.154;4.164;2023-09-12T09:12:08;22.90;78.70
76293;DHT22;67256;51.154;4.164;2023-09-12T09:14:34;22.90;78.40
76293;DHT22;67256;51.154;4.164;2023-09-12T09:16:59;22.90;78.80
76293;DHT22;67256;51.154;4.164;2023-09-12T09:19:46;22.90;78.90
76293;DHT22;67256;51.154;4.164;2023-09-12T09:22:13;23.00;78.70
76293;DHT22;67256;51.154;4.164;2023-09-12T09:24:38;22.80;79.00
76293;DHT22;67256;51.154;4.164;2023-09-12T09:27:04;22.80;79.30
76293;DHT22;67256;51.154;4.164;2023-09-12T09:29:29;22.80;79.00
76293;DHT22;67256;51.154;4.164;2023-09-12T09:32:01;22.80;78.10
76293;DHT22;67256;51.154;4.164;2023-09-12T09:34:27;22.80;78.60
76293;DHT22;67256;51.154;4.164;2023-09-12T09:36:57;22.80;78.60
76293;DHT22;67256;51.154;4.164;2023-09-12T09:39:23;22.80;78.60
76293;DHT22;67256;51.154;4.164;2023-09-12T09:41:50;22.80;79.20
76293;DHT22;67256;51.154;4.164;2023-09-12T09:44:16;22.70;79.60
76293;DHT22;67256;51.154;4.164;2023-09-12T09:46:45;22.70;80.30
76293;DHT22;67256;51.154;4.164;2023-09-12T09:49:11;22.60;80.30
76293;DHT22;67256;51.154;4.164;2023-09-12T09:51:42;22.50;80.50
76293;DHT22;67256;51.154;4.164;2023-09-12T09:54:11;22.60;80.30
76293;DHT22;67256;51.154;4.164;2023-09-12T09:59:15;22.70;80.40
76293;DHT22;67256;51.154;4.164;2023-09-12T10:01:41;22.80;79.90
76293;DHT22;67256;51.154;4.164;2023-09-12T10:04:08;22.90;79.70
76293;DHT22;67256;51.154;4.164;2023-09-12T10:06:35;23.00;77.50
76293;DHT22;67256;51.154;4.164;2023-09-12T10:09:01;22.90;76.70
76293;DHT22;67256;51.154;4.164;2023-09-12T10:11:31;22.90;76.50
76293;DHT22;67256;51.154;4.164;2023-09-12T10:13:59;23.00;77.70
76293;DHT22;67256;51.154;4.164;2023-09-12T10:16:35;23.10;77.20
76293;DHT22;67256;51.154;4.164;2023-09-12T10:19:16;23.20;76.50
76293;DHT22;67256;51.154;4.164;2023-09-12T10:21:47;23.30;76.60
76293;DHT22;67256;51.154;4.164;2023-09-12T10:24:13;23.40;76.10
76293;DHT22;67256;51.154;4.164;2023-09-12T10:26:39;23.60;76.40
76293;DHT22;67256;51.154;4.164;2023-09-12T10:29:09;23.70;75.20
76293;DHT22;67256;51.154;4.164;2023-09-12T10:31:35;23.90;75.20
76293;DHT22;67256;51.154;4.164;2023-09-12T10:34:01;24.00;75.90
76293;DHT22;67256;51.154;4.164;2023-09-12T10:36:28;24.10;74.90
76293;DHT22;67256;51.154;4.164;2023-09-12T10:38:54;24.20;73.80
76293;DHT22;67256;51.154;4.164;2023-09-12T10:41:20;24.20;73.60
76293;DHT22;67256;51.154;4.164;2023-09-12T10:43:47;24.30;73.50
76293;DHT22;67256;51.154;4.164;2023-09-12T10:46:15;24.30;74.10
76293;DHT22;67256;51.154;4.164;2023-09-12T10:48:41;24.30;72.10
76293;DHT22;67256;51.154;4.164;2023-09-12T10:51:07;24.30;72.60
76293;DHT22;67256;51.154;4.164;2023-09-12T10:53:33;24.40;73.30
76293;DHT22;67256;51.154;4.164;2023-09-12T10:56:00;24.40;72.40
76293;DHT22;67256;51.154;4.164;2023-09-12T10:58:25;24.30;70.40
76293;DHT22;67256;51.154;4.164;2023-09-12T11:03:38;24.30;71.90
76293;DHT22;67256;51.154;4.164;2023-09-12T11:06:04;24.20;72.30
76293;DHT22;67256;51.154;4.164;2023-09-12T11:08:35;24.30;71.80
76293;DHT22;67256;51.154;4.164;2023-09-12T11:11:16;24.20;69.70
76293;DHT22;67256;51.154;4.164;2023-09-12T11:13:42;24.10;71.60
76293;DHT22;67256;51.154;4.164;2023-09-12T11:16:12;24.20;72.40
76293;DHT22;67256;51.154;4.164;2023-09-12T11:21:33;24.10;71.20
76293;DHT22;67256;51.154;4.164;2023-09-12T11:23:59;24.20;72.10
76293;DHT22;67256;51.154;4.164;2023-09-12T11:26:24;24.20;71.40
76293;DHT22;67256;51.154;4.164;2023-09-12T11:28:50;24.20;69.80
76293;DHT22;67256;51.154;4.164;2023-09-12T11:31:25;24.30;70.70
76293;DHT22;67256;51.154;4.164;2023-09-12T11:33:52;24.30;70.60
76293;DHT22;67256;51.154;4.164;2023-09-12T11:36:18;24.30;71.30
76293;DHT22;67256;51.154;4.164;2023-09-12T11:38:44;24.40;71.70
76293;DHT22;67256;51.154;4.164;2023-09-12T11:41:14;24.50;71.50
76293;DHT22;67256;51.154;4.164;2023-09-12T11:43:40;24.60;70.90
76293;DHT22;67256;51.154;4.164;2023-09-12T11:46:06;24.60;70.90
76293;DHT22;67256;51.154;4.164;2023-09-12T11:48:33;24.60;71.20
76293;DHT22;67256;51.154;4.164;2023-09-12T11:50:59;24.60;71.20
76293;DHT22;67256;51.154;4.164;2023-09-12T11:53:27;24.60;69.40
76293;DHT22;67256;51.154;4.164;2023-09-12T11:55:56;24.50;70.30
76293;DHT22;67256;51.154;4.164;2023-09-12T11:58:22;24.50;71.50
76293;DHT22;67256;51.154;4.164;2023-09-12T12:00:50;24.60;69.10
76293;DHT22;67256;51.154;4.164;2023-09-12T12:03:27;24.60;68.90
76293;DHT22;67256;51.154;4.164;2023-09-12T12:05:55;24.80;69.20
76293;DHT22;67256;51.154;4.164;2023-09-12T12:08:21;24.90;69.30
76293;DHT22;67256;51.154;4.164;2023-09-12T12:10:50;24.80;68.30
76293;DHT22;67256;51.154;4.164;2023-09-12T12:13:16;24.70;67.80
76293;DHT22;67256;51.154;4.164;2023-09-12T12:15:42;24.70;69.20
76293;DHT22;67256;51.154;4.164;2023-09-12T12:18:08;24.60;67.90
76293;DHT22;67256;51.154;4.164;2023-09-12T12:20:33;24.50;67.40
76293;DHT22;67256;51.154;4.164;2023-09-12T12:22:59;24.60;66.50
76293;DHT22;67256;51.154;4.164;2023-09-12T12:25:25;24.70;66.70
76293;DHT22;67256;51.154;4.164;2023-09-12T12:27:50;24.70;67.10
76293;DHT22;67256;51.154;4.164;2023-09-12T12:30:17;24.80;67.60
76293;DHT22;67256;51.154;4.164;2023-09-12T12:32:43;25.00;68.30
76293;DHT22;67256;51.154;4.164;2023-09-12T12:35:18;25.20;66.80
76293;DHT22;67256;51.154;4.164;2023-09-12T12:37:44;25.30;66.80
76293;DHT22;67256;51.154;4.164;2023-09-12T12:40:12;25.30;65.90
76293;DHT22;67256;51.154;4.164;2023-09-12T12:42:39;25.30;67.10
76293;DHT22;67256;51.154;4.164;2023-09-12T12:45:13;25.30;65.30
76293;DHT22;67256;51.154;4.164;2023-09-12T12:47:39;25.10;65.10
76293;DHT22;67256;51.154;4.164;2023-09-12T12:50:10;25.10;66.00
76293;DHT22;67256;51.154;4.164;2023-09-12T12:52:35;24.90;70.00
76293;DHT22;67256;51.154;4.164;2023-09-12T12:55:03;24.80;70.40
76293;DHT22;67256;51.154;4.164;2023-09-12T12:57:29;24.60;70.20
76293;DHT22;67256;51.154;4.164;2023-09-12T12:59:54;24.60;72.80
76293;DHT22;67256;51.154;4.164;2023-09-12T13:02:20;24.50;73.10
76293;DHT22;67256;51.154;4.164;2023-09-12T13:04:45;24.40;73.70
76293;DHT22;67256;51.154;4.164;2023-09-12T13:07:11;24.40;74.10
76293;DHT22;67256;51.154;4.164;2023-09-12T13:09:37;24.40;74.00
76293;DHT22;67256;51.154;4.164;2023-09-12T13:12:04;24.60;74.00
76293;DHT22;67256;51.154;4.164;2023-09-12T13:14:29;24.80;73.50
76293;DHT22;67256;51.154;4.164;2023-09-12T13:16:57;24.80;71.60
76293;DHT22;67256;51.154;4.164;2023-09-12T13:19:23;24.80;71.40
76293;DHT22;67256;51.154;4.164;2023-09-12T13:21:49;24.90;71.70
76293;DHT22;67256;51.154;4.164;2023-09-12T13:24:15;25.10;71.80
76293;DHT22;67256;51.154;4.164;2023-09-12T13:26:40;25.00;71.40
76293;DHT22;67256;51.154;4.164;2023-09-12T13:29:06;25.00;71.90
76293;DHT22;67256;51.154;4.164;2023-09-12T13:31:31;24.90;72.90
76293;DHT22;67256;51.154;4.164;2023-09-12T13:33:57;24.90;73.10
76293;DHT22;67256;51.154;4.164;2023-09-12T13:36:23;24.80;73.30
76293;DHT22;67256;51.154;4.164;2023-09-12T13:38:49;24.80;74.20
76293;DHT22;67256;51.154;4.164;2023-09-12T13:41:17;24.80;73.50
76293;DHT22;67256;51.154;4.164;2023-09-12T13:43:42;24.80;73.60
76293;DHT22;67256;51.154;4.164;2023-09-12T13:46:10;24.80;72.80
76293;DHT22;67256;51.154;4.164;2023-09-12T13:48:36;24.90;72.70
76293;DHT22;67256;51.154;4.164;2023-09-12T13:51:02;25.00;72.20
76293;DHT22;67256;51.154;4.164;2023-09-12T13:53:28;24.90;72.00
76293;DHT22;67256;51.154;4.164;2023-09-12T13:55:53;24.80;72.60
76293;DHT22;67256;51.154;4.164;2023-09-12T13:58:21;24.80;72.90
76293;DHT22;67256;51.154;4.164;2023-09-12T14:00:47;24.80;74.00
76293;DHT22;67256;51.154;4.164;2023-09-12T14:03:14;24.60;74.10
76293;DHT22;67256;51.154;4.164;2023-09-12T14:05:39;24.60;73.50
76293;DHT22;67256;51.154;4.164;2023-09-12T14:08:05;24.70;74.00
76293;DHT22;67256;51.154;4.164;2023-09-12T14:10:31;24.80;74.10
76293;DHT22;67256;51.154;4.164;2023-09-12T14:12:56;24.80;73.70
76293;DHT22;67256;51.154;4.164;2023-09-12T14:15:22;24.90;73.80
76293;DHT22;67256;51.154;4.164;2023-09-12T14:17:47;24.80;73.10
76293;DHT22;67256;51.154;4.164;2023-09-12T14:20:13;24.80;73.60
76293;DHT22;67256;51.154;4.164;2023-09-12T14:22:41;24.90;72.90
76293;DHT22;67256;51.154;4.164;2023-09-12T14:25:06;24.70;73.80
76293;DHT22;67256;51.154;4.164;2023-09-12T14:27:33;24.70;73.80
76293;DHT22;67256;51.154;4.164;2023-09-12T14:30:00;24.70;74.10
76293;DHT22;67256;51.154;4.164;2023-09-12T14:32:25;24.70;73.40
76293;DHT22;67256;51.154;4.164;2023-09-12T14:34:51;24.60;73.80
76293;DHT22;67256;51.154;4.164;2023-09-12T14:37:17;24.70;73.90
76293;DHT22;67256;51.154;4.164;2023-09-12T14:39:42;24.90;73.60
76293;DHT22;67256;51.154;4.164;2023-09-12T14:42:08;24.80;73.00
76293;DHT22;67256;51.154;4.164;2023-09-12T14:44:35;24.80;73.40
76293;DHT22;67256;51.154;4.164;2023-09-12T14:47:00;24.90;72.10
76293;DHT22;67256;51.154;4.164;2023-09-12T14:49:26;24.70;72.10
76293;DHT22;67256;51.154;4.164;2023-09-12T14:51:51;24.70;72.50
76293;DHT22;67256;51.154;4.164;2023-09-12T14:54:17;24.70;73.30
76293;DHT22;67256;51.154;4.164;2023-09-12T14:56:42;24.70;73.20
76293;DHT22;67256;51.154;4.164;2023-09-12T14:59:08;24.80;73.00
76293;DHT22;67256;51.154;4.164;2023-09-12T15:01:34;24.90;73.00
76293;DHT22;67256;51.154;4.164;2023-09-12T15:04:00;25.00;73.10
76293;DHT22;67256;51.154;4.164;2023-09-12T15:06:26;24.70;73.70
76293;DHT22;67256;51.154;4.164;2023-09-12T15:08:51;24.50;74.60
76293;DHT22;67256;51.154;4.164;2023-09-12T15:11:18;24.40;75.00
76293;DHT22;67256;51.154;4.164;2023-09-12T15:13:43;24.40;74.80
76293;DHT22;67256;51.154;4.164;2023-09-12T15:16:11;24.10;75.80
76293;DHT22;67256;51.154;4.164;2023-09-12T15:18:36;24.20;75.70
76293;DHT22;67256;51.154;4.164;2023-09-12T15:21:03;24.30;75.40
76293;DHT22;67256;51.154;4.164;2023-09-12T15:23:30;24.30;75.30
76293;DHT22;67256;51.154;4.164;2023-09-12T15:25:56;24.30;75.50
76293;DHT22;67256;51.154;4.164;2023-09-12T15:28:21;24.30;75.20
76293;DHT22;67256;51.154;4.164;2023-09-12T15:30:47;24.30;74.40
76293;DHT22;67256;51.154;4.164;2023-09-12T15:33:12;24.40;74.30
76293;DHT22;67256;51.154;4.164;2023-09-12T15:35:38;24.40;74.20
76293;DHT22;67256;51.154;4.164;2023-09-12T15:38:04;24.50;74.20